Decoded Metar for KWST (WESTERLY in RI, USA) (IATA:WST) | Meteo·Mobile Aviation Weather
aviador You're here:

KWST Decoded Metar

WESTERLY in RI, USA
Report Time2019-01-19 00:53:00
UTC Time2019-01-19 01:49:39
Flight Rules mvfr MVFR
Wind240° at 03 kt
W.Decomp.*RWY 25: 3.0 kt HW 0.3 kt RCW
RWY 32: 1.3 kt HW 2.7 kt LCW
W.Rank240° ranks 2
Current wind is below 240° avg. (7.4)
Visibility9999 m
Phenomena:N/A
Clouds:Overcast 027 Hf
Expected CloudBase > 800 ft AGL from Temp-Dew spread
Ceiling2,700 ft
Temp03°C (ISA -12)
Dew Point01°C (87% RH)
AAT0.1°C
QNH1018 hPa
Density Alt-1,453 ft
Elevation69 ft
Report Wrong Elevation
Raw Report
KWST 190053Z AUTO 24003KT 10SM OVC027 03/01 A3007 RMK AO2 SLP183
T00330011=

Extra information for KWST:More info

Metar Taf Metar & Taf Last 4 Metars F.Rules Stats Wind Profile Meteogram Temp Stats Airport Information Weather charts Add Link Nearby VenuesMetar ALERT Operation Metar Decoded Social comments

AIRNAV info for KWST